sensor_id;sensor_type;location;lat;lon;timestamp;P1;durP1;ratioP1;P2;durP2;ratioP2
18378;SDS011;27025;51.986;5.984;2023-10-19T00:02:53;16.57;;;14.97;;
18378;SDS011;27025;51.986;5.984;2023-10-19T00:05:27;16.67;;;15.07;;
18378;SDS011;27025;51.986;5.984;2023-10-19T00:08:02;18.33;;;16.57;;
18378;SDS011;27025;51.986;5.984;2023-10-19T00:10:52;19.00;;;17.10;;
18378;SDS011;27025;51.986;5.984;2023-10-19T00:13:51;19.57;;;17.67;;
18378;SDS011;27025;51.986;5.984;2023-10-19T00:16:21;18.80;;;17.00;;
18378;SDS011;27025;51.986;5.984;2023-10-19T00:19:08;19.17;;;17.17;;
18378;SDS011;27025;51.986;5.984;2023-10-19T00:21:35;20.20;;;18.10;;
18378;SDS011;27025;51.986;5.984;2023-10-19T00:27:07;20.47;;;18.57;;
18378;SDS011;27025;51.986;5.984;2023-10-19T00:29:43;22.40;;;20.10;;
18378;SDS011;27025;51.986;5.984;2023-10-19T00:32:20;22.27;;;20.10;;
18378;SDS011;27025;51.986;5.984;2023-10-19T00:39:59;23.70;;;21.40;;
18378;SDS011;27025;51.986;5.984;2023-10-19T00:42:45;24.50;;;22.00;;
18378;SDS011;27025;51.986;5.984;2023-10-19T00:45:17;26.20;;;23.67;;
18378;SDS011;27025;51.986;5.984;2023-10-19T00:47:50;26.07;;;23.50;;
18378;SDS011;27025;51.986;5.984;2023-10-19T00:50:18;27.47;;;24.50;;
18378;SDS011;27025;51.986;5.984;2023-10-19T00:52:47;26.40;;;23.70;;
18378;SDS011;27025;51.986;5.984;2023-10-19T00:55:17;27.10;;;24.23;;
18378;SDS011;27025;51.986;5.984;2023-10-19T00:57:44;27.90;;;24.70;;
18378;SDS011;27025;51.986;5.984;2023-10-19T01:00:14;26.27;;;23.50;;
18378;SDS011;27025;51.986;5.984;2023-10-19T01:02:55;29.07;;;24.97;;
18378;SDS011;27025;51.986;5.984;2023-10-19T01:05:24;26.07;;;23.53;;
18378;SDS011;27025;51.986;5.984;2023-10-19T01:07:57;28.50;;;25.40;;
18378;SDS011;27025;51.986;5.984;2023-10-19T01:10:25;27.60;;;24.50;;
18378;SDS011;27025;51.986;5.984;2023-10-19T01:12:53;27.53;;;24.63;;
18378;SDS011;27025;51.986;5.984;2023-10-19T01:15:20;28.83;;;25.80;;
18378;SDS011;27025;51.986;5.984;2023-10-19T01:17:53;30.53;;;25.73;;
18378;SDS011;27025;51.986;5.984;2023-10-19T01:20:25;28.87;;;25.53;;
18378;SDS011;27025;51.986;5.984;2023-10-19T01:28:00;28.77;;;24.97;;
18378;SDS011;27025;51.986;5.984;2023-10-19T01:30:32;27.97;;;24.53;;
18378;SDS011;27025;51.986;5.984;2023-10-19T01:32:58;27.23;;;24.47;;
18378;SDS011;27025;51.986;5.984;2023-10-19T01:35:24;27.07;;;23.73;;
18378;SDS011;27025;51.986;5.984;2023-10-19T01:37:52;29.23;;;25.80;;
18378;SDS011;27025;51.986;5.984;2023-10-19T01:40:18;26.57;;;23.63;;
18378;SDS011;27025;51.986;5.984;2023-10-19T01:42:47;26.67;;;23.43;;
18378;SDS011;27025;51.986;5.984;2023-10-19T01:45:13;26.47;;;23.77;;
18378;SDS011;27025;51.986;5.984;2023-10-19T01:47:39;29.63;;;24.07;;
18378;SDS011;27025;51.986;5.984;2023-10-19T01:50:06;26.30;;;23.50;;
18378;SDS011;27025;51.986;5.984;2023-10-19T01:52:38;25.97;;;23.27;;
18378;SDS011;27025;51.986;5.984;2023-10-19T01:55:04;26.57;;;23.73;;
18378;SDS011;27025;51.986;5.984;2023-10-19T01:57:34;27.27;;;24.33;;
18378;SDS011;27025;51.986;5.984;2023-10-19T02:00:00;28.40;;;25.30;;
18378;SDS011;27025;51.986;5.984;2023-10-19T02:02:36;30.53;;;26.07;;
18378;SDS011;27025;51.986;5.984;2023-10-19T02:05:02;29.70;;;26.53;;
18378;SDS011;27025;51.986;5.984;2023-10-19T02:07:33;31.50;;;25.83;;
18378;SDS011;27025;51.986;5.984;2023-10-19T02:10:00;26.93;;;24.07;;
18378;SDS011;27025;51.986;5.984;2023-10-19T02:12:26;29.17;;;25.97;;
18378;SDS011;27025;51.986;5.984;2023-10-19T02:14:52;27.60;;;24.80;;
18378;SDS011;27025;51.986;5.984;2023-10-19T02:17:18;27.07;;;24.30;;
18378;SDS011;27025;51.986;5.984;2023-10-19T02:19:44;26.43;;;23.63;;
18378;SDS011;27025;51.986;5.984;2023-10-19T02:22:10;27.73;;;24.33;;
18378;SDS011;27025;51.986;5.984;2023-10-19T02:24:37;27.60;;;24.23;;
18378;SDS011;27025;51.986;5.984;2023-10-19T02:27:04;28.77;;;23.77;;
18378;SDS011;27025;51.986;5.984;2023-10-19T02:29:30;26.83;;;23.97;;
18378;SDS011;27025;51.986;5.984;2023-10-19T02:31:57;29.40;;;24.07;;
18378;SDS011;27025;51.986;5.984;2023-10-19T02:34:28;28.50;;;25.13;;
18378;SDS011;27025;51.986;5.984;2023-10-19T02:36:55;28.27;;;25.20;;
18378;SDS011;27025;51.986;5.984;2023-10-19T02:39:21;27.77;;;24.27;;
18378;SDS011;27025;51.986;5.984;2023-10-19T02:41:53;28.20;;;23.87;;
18378;SDS011;27025;51.986;5.984;2023-10-19T02:44:20;28.00;;;23.47;;
18378;SDS011;27025;51.986;5.984;2023-10-19T02:46:53;29.63;;;25.37;;
18378;SDS011;27025;51.986;5.984;2023-10-19T02:49:40;27.50;;;24.30;;
18378;SDS011;27025;51.986;5.984;2023-10-19T02:52:08;29.37;;;24.27;;
18378;SDS011;27025;51.986;5.984;2023-10-19T02:54:38;31.73;;;24.27;;
18378;SDS011;27025;51.986;5.984;2023-10-19T02:57:04;29.07;;;23.20;;
18378;SDS011;27025;51.986;5.984;2023-10-19T02:59:32;27.03;;;22.67;;
18378;SDS011;27025;51.986;5.984;2023-10-19T03:01:59;25.67;;;22.17;;
18378;SDS011;27025;51.986;5.984;2023-10-19T03:04:37;24.13;;;21.63;;
18378;SDS011;27025;51.986;5.984;2023-10-19T03:07:03;27.17;;;22.13;;
18378;SDS011;27025;51.986;5.984;2023-10-19T03:09:30;23.23;;;20.80;;
18378;SDS011;27025;51.986;5.984;2023-10-19T03:12:01;28.70;;;21.40;;
18378;SDS011;27025;51.986;5.984;2023-10-19T03:14:33;25.13;;;19.97;;
18378;SDS011;27025;51.986;5.984;2023-10-19T03:16:59;23.27;;;20.20;;
18378;SDS011;27025;51.986;5.984;2023-10-19T03:19:25;22.17;;;19.77;;
18378;SDS011;27025;51.986;5.984;2023-10-19T03:21:52;21.30;;;19.00;;
18378;SDS011;27025;51.986;5.984;2023-10-19T03:24:25;21.03;;;18.87;;
18378;SDS011;27025;51.986;5.984;2023-10-19T03:27:11;23.23;;;19.60;;
18378;SDS011;27025;51.986;5.984;2023-10-19T03:29:41;22.03;;;18.93;;
18378;SDS011;27025;51.986;5.984;2023-10-19T03:32:13;27.37;;;19.70;;
18378;SDS011;27025;51.986;5.984;2023-10-19T03:34:41;22.43;;;18.80;;
18378;SDS011;27025;51.986;5.984;2023-10-19T03:37:15;19.53;;;17.30;;
18378;SDS011;27025;51.986;5.984;2023-10-19T03:39:42;23.00;;;18.60;;
18378;SDS011;27025;51.986;5.984;2023-10-19T03:42:11;19.27;;;16.00;;
18378;SDS011;27025;51.986;5.984;2023-10-19T03:44:39;15.97;;;14.33;;
18378;SDS011;27025;51.986;5.984;2023-10-19T03:47:08;19.70;;;14.70;;
18378;SDS011;27025;51.986;5.984;2023-10-19T03:49:37;15.13;;;13.40;;
18378;SDS011;27025;51.986;5.984;2023-10-19T03:52:04;17.97;;;13.77;;
18378;SDS011;27025;51.986;5.984;2023-10-19T03:54:33;15.67;;;13.40;;
18378;SDS011;27025;51.986;5.984;2023-10-19T03:57:12;14.73;;;11.50;;
18378;SDS011;27025;51.986;5.984;2023-10-19T03:59:44;13.97;;;9.43;;
18378;SDS011;27025;51.986;5.984;2023-10-19T04:02:10;9.53;;;7.70;;
18378;SDS011;27025;51.986;5.984;2023-10-19T04:04:41;14.13;;;8.20;;
18378;SDS011;27025;51.986;5.984;2023-10-19T04:07:13;15.20;;;8.10;;
18378;SDS011;27025;51.986;5.984;2023-10-19T04:09:45;10.20;;;7.73;;
18378;SDS011;27025;51.986;5.984;2023-10-19T04:12:29;12.00;;;8.00;;
18378;SDS011;27025;51.986;5.984;2023-10-19T04:15:00;16.37;;;9.13;;
18378;SDS011;27025;51.986;5.984;2023-10-19T04:17:41;17.93;;;9.20;;
18378;SDS011;27025;51.986;5.984;2023-10-19T04:20:11;11.40;;;9.70;;
18378;SDS011;27025;51.986;5.984;2023-10-19T04:22:43;14.73;;;11.30;;
18378;SDS011;27025;51.986;5.984;2023-10-19T04:25:09;15.57;;;11.97;;
18378;SDS011;27025;51.986;5.984;2023-10-19T04:27:41;16.57;;;12.83;;
18378;SDS011;27025;51.986;5.984;2023-10-19T04:30:11;13.23;;;11.87;;
18378;SDS011;27025;51.986;5.984;2023-10-19T04:32:44;17.90;;;12.57;;
18378;SDS011;27025;51.986;5.984;2023-10-19T04:35:11;15.87;;;13.37;;
18378;SDS011;27025;51.986;5.984;2023-10-19T04:37:39;15.90;;;13.67;;
18378;SDS011;27025;51.986;5.984;2023-10-19T04:40:10;17.93;;;13.03;;
18378;SDS011;27025;51.986;5.984;2023-10-19T04:42:37;16.30;;;13.80;;
18378;SDS011;27025;51.986;5.984;2023-10-19T04:45:03;17.03;;;13.13;;
18378;SDS011;27025;51.986;5.984;2023-10-19T04:47:30;15.47;;;12.80;;
18378;SDS011;27025;51.986;5.984;2023-10-19T04:49:56;15.33;;;12.33;;
18378;SDS011;27025;51.986;5.984;2023-10-19T04:52:22;16.80;;;13.30;;
18378;SDS011;27025;51.986;5.984;2023-10-19T04:54:48;14.57;;;13.03;;
18378;SDS011;27025;51.986;5.984;2023-10-19T04:57:14;15.67;;;12.73;;
18378;SDS011;27025;51.986;5.984;2023-10-19T04:59:40;16.53;;;12.47;;
18378;SDS011;27025;51.986;5.984;2023-10-19T05:02:10;18.83;;;13.30;;
18378;SDS011;27025;51.986;5.984;2023-10-19T05:04:36;14.57;;;13.00;;
18378;SDS011;27025;51.986;5.984;2023-10-19T05:07:02;16.40;;;12.73;;
18378;SDS011;27025;51.986;5.984;2023-10-19T05:09:29;16.27;;;11.87;;
18378;SDS011;27025;51.986;5.984;2023-10-19T05:11:55;15.60;;;12.67;;
18378;SDS011;27025;51.986;5.984;2023-10-19T05:14:22;17.00;;;12.30;;
18378;SDS011;27025;51.986;5.984;2023-10-19T05:16:48;14.20;;;12.70;;
18378;SDS011;27025;51.986;5.984;2023-10-19T05:19:14;13.20;;;11.87;;
18378;SDS011;27025;51.986;5.984;2023-10-19T05:21:40;15.87;;;11.67;;
18378;SDS011;27025;51.986;5.984;2023-10-19T05:24:06;13.37;;;12.00;;
18378;SDS011;27025;51.986;5.984;2023-10-19T05:26:35;17.13;;;11.50;;
18378;SDS011;27025;51.986;5.984;2023-10-19T05:29:01;16.17;;;10.87;;
18378;SDS011;27025;51.986;5.984;2023-10-19T05:31:28;13.20;;;10.93;;
18378;SDS011;27025;51.986;5.984;2023-10-19T05:33:56;16.93;;;11.33;;
18378;SDS011;27025;51.986;5.984;2023-10-19T05:36:22;14.77;;;11.30;;
18378;SDS011;27025;51.986;5.984;2023-10-19T05:38:50;16.93;;;12.50;;
18378;SDS011;27025;51.986;5.984;2023-10-19T05:41:16;17.67;;;12.30;;
18378;SDS011;27025;51.986;5.984;2023-10-19T05:43:43;18.13;;;13.35;;
18378;SDS011;27025;51.986;5.984;2023-10-19T05:46:09;18.60;;;12.07;;
18378;SDS011;27025;51.986;5.984;2023-10-19T05:48:35;16.07;;;10.90;;
18378;SDS011;27025;51.986;5.984;2023-10-19T05:51:01;14.07;;;10.60;;
18378;SDS011;27025;51.986;5.984;2023-10-19T05:53:28;13.17;;;10.23;;
18378;SDS011;27025;51.986;5.984;2023-10-19T05:55:55;14.47;;;11.00;;
18378;SDS011;27025;51.986;5.984;2023-10-19T05:58:21;13.23;;;10.83;;
18378;SDS011;27025;51.986;5.984;2023-10-19T06:00:47;13.97;;;10.90;;
18378;SDS011;27025;51.986;5.984;2023-10-19T06:03:17;17.27;;;11.13;;
18378;SDS011;27025;51.986;5.984;2023-10-19T06:05:43;12.60;;;10.20;;
18378;SDS011;27025;51.986;5.984;2023-10-19T06:08:08;14.63;;;10.33;;
18378;SDS011;27025;51.986;5.984;2023-10-19T06:10:36;14.83;;;10.10;;
18378;SDS011;27025;51.986;5.984;2023-10-19T06:13:04;16.43;;;9.87;;
18378;SDS011;27025;51.986;5.984;2023-10-19T06:15:34;10.97;;;9.30;;
18378;SDS011;27025;51.986;5.984;2023-10-19T06:18:00;12.00;;;9.70;;
18378;SDS011;27025;51.986;5.984;2023-10-19T06:20:28;13.47;;;9.40;;
18378;SDS011;27025;51.986;5.984;2023-10-19T06:22:55;12.67;;;9.13;;
18378;SDS011;27025;51.986;5.984;2023-10-19T06:25:22;12.07;;;8.87;;
18378;SDS011;27025;51.986;5.984;2023-10-19T06:27:48;15.43;;;9.00;;
18378;SDS011;27025;51.986;5.984;2023-10-19T06:30:15;13.70;;;9.10;;
18378;SDS011;27025;51.986;5.984;2023-10-19T06:32:50;14.97;;;9.27;;
18378;SDS011;27025;51.986;5.984;2023-10-19T06:35:17;13.37;;;8.37;;
18378;SDS011;27025;51.986;5.984;2023-10-19T06:37:43;11.30;;;8.90;;
18378;SDS011;27025;51.986;5.984;2023-10-19T06:40:10;13.10;;;8.73;;
18378;SDS011;27025;51.986;5.984;2023-10-19T06:42:46;11.47;;;9.10;;
18378;SDS011;27025;51.986;5.984;2023-10-19T06:45:12;14.33;;;8.60;;
18378;SDS011;27025;51.986;5.984;2023-10-19T06:47:41;15.13;;;9.20;;
18378;SDS011;27025;51.986;5.984;2023-10-19T06:50:09;13.53;;;9.23;;
18378;SDS011;27025;51.986;5.984;2023-10-19T06:52:39;11.80;;;8.77;;
18378;SDS011;27025;51.986;5.984;2023-10-19T06:55:06;10.60;;;8.13;;
18378;SDS011;27025;51.986;5.984;2023-10-19T06:57:53;14.87;;;7.87;;
18378;SDS011;27025;51.986;5.984;2023-10-19T07:00:21;13.40;;;8.03;;
18378;SDS011;27025;51.986;5.984;2023-10-19T07:02:47;12.17;;;7.40;;
18378;SDS011;27025;51.986;5.984;2023-10-19T07:05:14;11.40;;;7.50;;
18378;SDS011;27025;51.986;5.984;2023-10-19T07:07:45;12.47;;;7.83;;
18378;SDS011;27025;51.986;5.984;2023-10-19T07:10:12;11.07;;;7.90;;
18378;SDS011;27025;51.986;5.984;2023-10-19T07:12:39;13.80;;;7.57;;
18378;SDS011;27025;51.986;5.984;2023-10-19T07:15:06;14.60;;;7.43;;
18378;SDS011;27025;51.986;5.984;2023-10-19T07:17:36;12.67;;;7.57;;
18378;SDS011;27025;51.986;5.984;2023-10-19T07:20:05;13.30;;;7.13;;
18378;SDS011;27025;51.986;5.984;2023-10-19T07:22:32;9.97;;;6.90;;
18378;SDS011;27025;51.986;5.984;2023-10-19T07:24:58;14.20;;;6.97;;
18378;SDS011;27025;51.986;5.984;2023-10-19T07:27:25;15.90;;;6.83;;
18378;SDS011;27025;51.986;5.984;2023-10-19T07:29:53;10.17;;;6.50;;
18378;SDS011;27025;51.986;5.984;2023-10-19T07:32:19;12.13;;;6.67;;
18378;SDS011;27025;51.986;5.984;2023-10-19T07:34:46;10.97;;;6.40;;
18378;SDS011;27025;51.986;5.984;2023-10-19T07:37:13;14.17;;;6.70;;
18378;SDS011;27025;51.986;5.984;2023-10-19T07:39:48;13.00;;;6.00;;
18378;SDS011;27025;51.986;5.984;2023-10-19T07:42:17;12.83;;;5.73;;
18378;SDS011;27025;51.986;5.984;2023-10-19T07:44:43;9.37;;;5.97;;
18378;SDS011;27025;51.986;5.984;2023-10-19T07:47:10;13.93;;;6.27;;
18378;SDS011;27025;51.986;5.984;2023-10-19T07:49:36;12.60;;;5.83;;
18378;SDS011;27025;51.986;5.984;2023-10-19T07:52:04;9.00;;;5.37;;
18378;SDS011;27025;51.986;5.984;2023-10-19T07:54:31;10.57;;;5.40;;
18378;SDS011;27025;51.986;5.984;2023-10-19T07:56:57;16.83;;;5.43;;
18378;SDS011;27025;51.986;5.984;2023-10-19T07:59:28;11.43;;;5.30;;
18378;SDS011;27025;51.986;5.984;2023-10-19T08:01:54;12.80;;;4.70;;
18378;SDS011;27025;51.986;5.984;2023-10-19T08:04:20;7.53;;;4.43;;
18378;SDS011;27025;51.986;5.984;2023-10-19T08:06:46;16.30;;;5.17;;
18378;SDS011;27025;51.986;5.984;2023-10-19T08:09:12;11.40;;;4.40;;
18378;SDS011;27025;51.986;5.984;2023-10-19T08:11:38;11.97;;;4.10;;
18378;SDS011;27025;51.986;5.984;2023-10-19T08:14:07;6.63;;;3.80;;
18378;SDS011;27025;51.986;5.984;2023-10-19T08:16:33;10.47;;;3.73;;
18378;SDS011;27025;51.986;5.984;2023-10-19T08:18:59;16.17;;;3.60;;
18378;SDS011;27025;51.986;5.984;2023-10-19T08:21:25;16.47;;;3.93;;
18378;SDS011;27025;51.986;5.984;2023-10-19T08:23:53;12.60;;;3.23;;
18378;SDS011;27025;51.986;5.984;2023-10-19T08:26:20;13.77;;;3.80;;
18378;SDS011;27025;51.986;5.984;2023-10-19T08:28:46;10.67;;;3.60;;
18378;SDS011;27025;51.986;5.984;2023-10-19T08:31:12;9.07;;;3.30;;
18378;SDS011;27025;51.986;5.984;2023-10-19T08:33:39;9.20;;;3.27;;
18378;SDS011;27025;51.986;5.984;2023-10-19T08:36:06;13.53;;;3.17;;
18378;SDS011;27025;51.986;5.984;2023-10-19T08:38:32;12.47;;;3.47;;
18378;SDS011;27025;51.986;5.984;2023-10-19T08:40:58;10.03;;;2.87;;
18378;SDS011;27025;51.986;5.984;2023-10-19T08:43:25;14.50;;;3.43;;
18378;SDS011;27025;51.986;5.984;2023-10-19T08:45:51;10.73;;;3.13;;
18378;SDS011;27025;51.986;5.984;2023-10-19T08:48:17;9.40;;;2.87;;
18378;SDS011;27025;51.986;5.984;2023-10-19T08:50:43;8.83;;;3.43;;
18378;SDS011;27025;51.986;5.984;2023-10-19T08:53:11;10.83;;;3.40;;
18378;SDS011;27025;51.986;5.984;2023-10-19T08:55:39;10.00;;;3.37;;
18378;SDS011;27025;51.986;5.984;2023-10-19T08:58:05;12.77;;;4.20;;
18378;SDS011;27025;51.986;5.984;2023-10-19T09:00:47;10.33;;;4.23;;
18378;SDS011;27025;51.986;5.984;2023-10-19T09:03:14;9.17;;;4.63;;
18378;SDS011;27025;51.986;5.984;2023-10-19T09:05:41;12.53;;;4.67;;
18378;SDS011;27025;51.986;5.984;2023-10-19T09:08:07;11.97;;;4.80;;
18378;SDS011;27025;51.986;5.984;2023-10-19T09:10:34;13.70;;;5.10;;
18378;SDS011;27025;51.986;5.984;2023-10-19T09:13:05;12.47;;;5.43;;
18378;SDS011;27025;51.986;5.984;2023-10-19T09:15:34;16.07;;;4.87;;
18378;SDS011;27025;51.986;5.984;2023-10-19T09:18:17;10.03;;;4.67;;
18378;SDS011;27025;51.986;5.984;2023-10-19T09:20:47;14.30;;;4.33;;
18378;SDS011;27025;51.986;5.984;2023-10-19T09:23:32;11.40;;;4.50;;
18378;SDS011;27025;51.986;5.984;2023-10-19T09:25:59;15.23;;;4.43;;
18378;SDS011;27025;51.986;5.984;2023-10-19T09:28:28;8.97;;;4.47;;
18378;SDS011;27025;51.986;5.984;2023-10-19T09:30:55;11.50;;;4.03;;
18378;SDS011;27025;51.986;5.984;2023-10-19T09:33:21;11.57;;;4.13;;
18378;SDS011;27025;51.986;5.984;2023-10-19T09:35:49;13.77;;;4.87;;
18378;SDS011;27025;51.986;5.984;2023-10-19T09:38:21;10.43;;;4.50;;
18378;SDS011;27025;51.986;5.984;2023-10-19T09:40:48;10.07;;;4.30;;
18378;SDS011;27025;51.986;5.984;2023-10-19T09:43:37;9.87;;;4.30;;
18378;SDS011;27025;51.986;5.984;2023-10-19T09:46:05;9.90;;;4.30;;
18378;SDS011;27025;51.986;5.984;2023-10-19T09:48:33;10.47;;;4.33;;
18378;SDS011;27025;51.986;5.984;2023-10-19T09:51:01;9.30;;;4.40;;
18378;SDS011;27025;51.986;5.984;2023-10-19T09:53:28;10.13;;;4.13;;
18378;SDS011;27025;51.986;5.984;2023-10-19T09:55:59;9.70;;;4.10;;
18378;SDS011;27025;51.986;5.984;2023-10-19T09:58:27;11.03;;;4.70;;
18378;SDS011;27025;51.986;5.984;2023-10-19T10:00:54;8.17;;;4.20;;
18378;SDS011;27025;51.986;5.984;2023-10-19T10:06:07;12.30;;;4.10;;
18378;SDS011;27025;51.986;5.984;2023-10-19T10:08:35;9.90;;;3.20;;
18378;SDS011;27025;51.986;5.984;2023-10-19T10:13:47;9.17;;;3.57;;
18378;SDS011;27025;51.986;5.984;2023-10-19T10:16:17;9.70;;;3.50;;
18378;SDS011;27025;51.986;5.984;2023-10-19T10:18:45;13.93;;;3.70;;
18378;SDS011;27025;51.986;5.984;2023-10-19T10:21:14;9.93;;;3.50;;
18378;SDS011;27025;51.986;5.984;2023-10-19T10:23:57;8.77;;;3.17;;
18378;SDS011;27025;51.986;5.984;2023-10-19T10:26:25;11.23;;;3.50;;
18378;SDS011;27025;51.986;5.984;2023-10-19T10:31:44;12.30;;;3.50;;
18378;SDS011;27025;51.986;5.984;2023-10-19T10:34:11;11.57;;;3.30;;
18378;SDS011;27025;51.986;5.984;2023-10-19T10:36:59;10.17;;;3.33;;
18378;SDS011;27025;51.986;5.984;2023-10-19T10:39:30;11.50;;;3.77;;
18378;SDS011;27025;51.986;5.984;2023-10-19T10:41:57;11.53;;;3.90;;
18378;SDS011;27025;51.986;5.984;2023-10-19T10:44:36;9.90;;;3.53;;
18378;SDS011;27025;51.986;5.984;2023-10-19T10:47:06;9.37;;;3.83;;
18378;SDS011;27025;51.986;5.984;2023-10-19T10:49:35;9.97;;;3.90;;
18378;SDS011;27025;51.986;5.984;2023-10-19T10:52:01;10.63;;;3.47;;
18378;SDS011;27025;51.986;5.984;2023-10-19T10:54:27;10.80;;;4.13;;
18378;SDS011;27025;51.986;5.984;2023-10-19T10:56:53;11.97;;;3.60;;
18378;SDS011;27025;51.986;5.984;2023-10-19T10:59:20;7.53;;;3.30;;
18378;SDS011;27025;51.986;5.984;2023-10-19T11:01:46;11.67;;;3.53;;
18378;SDS011;27025;51.986;5.984;2023-10-19T11:04:12;10.13;;;3.60;;
18378;SDS011;27025;51.986;5.984;2023-10-19T11:06:50;9.97;;;3.70;;
18378;SDS011;27025;51.986;5.984;2023-10-19T11:09:16;11.20;;;3.87;;
18378;SDS011;27025;51.986;5.984;2023-10-19T11:11:46;15.43;;;4.60;;
18378;SDS011;27025;51.986;5.984;2023-10-19T11:14:14;11.83;;;4.10;;
18378;SDS011;27025;51.986;5.984;2023-10-19T11:16:40;12.83;;;4.67;;
18378;SDS011;27025;51.986;5.984;2023-10-19T11:19:08;12.60;;;3.80;;
18378;SDS011;27025;51.986;5.984;2023-10-19T11:21:35;12.40;;;4.10;;
18378;SDS011;27025;51.986;5.984;2023-10-19T11:24:01;11.67;;;4.70;;
18378;SDS011;27025;51.986;5.984;2023-10-19T11:26:27;12.47;;;4.43;;
18378;SDS011;27025;51.986;5.984;2023-10-19T11:28:57;10.60;;;3.90;;
18378;SDS011;27025;51.986;5.984;2023-10-19T11:31:23;11.67;;;3.73;;
18378;SDS011;27025;51.986;5.984;2023-10-19T11:33:50;11.03;;;3.73;;
18378;SDS011;27025;51.986;5.984;2023-10-19T11:36:18;16.07;;;4.40;;
18378;SDS011;27025;51.986;5.984;2023-10-19T11:38:46;12.70;;;4.33;;
18378;SDS011;27025;51.986;5.984;2023-10-19T11:41:12;9.20;;;4.13;;
18378;SDS011;27025;51.986;5.984;2023-10-19T11:43:39;16.73;;;4.43;;
18378;SDS011;27025;51.986;5.984;2023-10-19T11:46:05;10.37;;;3.57;;
18378;SDS011;27025;51.986;5.984;2023-10-19T11:48:32;11.27;;;4.13;;
18378;SDS011;27025;51.986;5.984;2023-10-19T11:50:58;10.93;;;4.20;;
18378;SDS011;27025;51.986;5.984;2023-10-19T11:53:24;10.03;;;4.07;;
18378;SDS011;27025;51.986;5.984;2023-10-19T11:55:50;13.33;;;4.13;;
18378;SDS011;27025;51.986;5.984;2023-10-19T11:58:16;10.83;;;4.10;;
18378;SDS011;27025;51.986;5.984;2023-10-19T12:00:42;10.47;;;4.50;;
18378;SDS011;27025;51.986;5.984;2023-10-19T12:03:12;11.77;;;4.47;;
18378;SDS011;27025;51.986;5.984;2023-10-19T12:05:41;11.63;;;4.60;;
18378;SDS011;27025;51.986;5.984;2023-10-19T12:08:07;8.73;;;4.50;;
18378;SDS011;27025;51.986;5.984;2023-10-19T12:10:33;13.07;;;4.77;;
18378;SDS011;27025;51.986;5.984;2023-10-19T12:13:03;9.43;;;4.37;;
18378;SDS011;27025;51.986;5.984;2023-10-19T12:15:30;10.17;;;4.97;;
18378;SDS011;27025;51.986;5.984;2023-10-19T12:17:57;12.60;;;4.70;;
18378;SDS011;27025;51.986;5.984;2023-10-19T12:20:23;13.27;;;4.77;;
18378;SDS011;27025;51.986;5.984;2023-10-19T12:22:49;8.47;;;4.40;;
18378;SDS011;27025;51.986;5.984;2023-10-19T12:25:19;12.27;;;4.63;;
18378;SDS011;27025;51.986;5.984;2023-10-19T12:27:53;9.87;;;4.50;;
18378;SDS011;27025;51.986;5.984;2023-10-19T12:30:20;13.53;;;4.13;;
18378;SDS011;27025;51.986;5.984;2023-10-19T12:32:48;14.50;;;4.37;;
18378;SDS011;27025;51.986;5.984;2023-10-19T12:35:17;8.37;;;4.27;;
18378;SDS011;27025;51.986;5.984;2023-10-19T12:37:49;8.07;;;4.30;;
18378;SDS011;27025;51.986;5.984;2023-10-19T12:40:18;10.03;;;4.97;;
18378;SDS011;27025;51.986;5.984;2023-10-19T12:42:54;12.20;;;4.53;;
18378;SDS011;27025;51.986;5.984;2023-10-19T12:45:23;14.50;;;4.60;;
18378;SDS011;27025;51.986;5.984;2023-10-19T12:47:50;11.20;;;5.17;;
18378;SDS011;27025;51.986;5.984;2023-10-19T12:50:18;15.20;;;5.00;;
18378;SDS011;27025;51.986;5.984;2023-10-19T12:52:48;11.93;;;4.50;;
18378;SDS011;27025;51.986;5.984;2023-10-19T12:55:15;12.43;;;4.50;;
18378;SDS011;27025;51.986;5.984;2023-10-19T12:57:41;8.43;;;4.50;;
18378;SDS011;27025;51.986;5.984;2023-10-19T13:00:07;13.60;;;4.60;;
18378;SDS011;27025;51.986;5.984;2023-10-19T13:02:54;9.73;;;4.10;;
18378;SDS011;27025;51.986;5.984;2023-10-19T13:05:25;11.67;;;4.47;;
18378;SDS011;27025;51.986;5.984;2023-10-19T13:07:52;12.33;;;4.67;;
18378;SDS011;27025;51.986;5.984;2023-10-19T13:10:18;10.97;;;4.47;;
18378;SDS011;27025;51.986;5.984;2023-10-19T13:12:44;10.73;;;4.90;;
18378;SDS011;27025;51.986;5.984;2023-10-19T13:15:11;13.60;;;4.70;;
18378;SDS011;27025;51.986;5.984;2023-10-19T13:17:39;13.80;;;4.43;;
18378;SDS011;27025;51.986;5.984;2023-10-19T13:20:05;11.03;;;3.90;;
18378;SDS011;27025;51.986;5.984;2023-10-19T13:22:41;11.13;;;4.27;;
18378;SDS011;27025;51.986;5.984;2023-10-19T13:25:07;10.47;;;4.07;;
18378;SDS011;27025;51.986;5.984;2023-10-19T13:27:34;13.53;;;4.13;;
18378;SDS011;27025;51.986;5.984;2023-10-19T13:30:00;9.10;;;3.67;;
18378;SDS011;27025;51.986;5.984;2023-10-19T13:32:29;9.00;;;4.00;;
18378;SDS011;27025;51.986;5.984;2023-10-19T13:34:57;15.27;;;4.57;;
18378;SDS011;27025;51.986;5.984;2023-10-19T13:37:23;12.60;;;4.13;;
18378;SDS011;27025;51.986;5.984;2023-10-19T13:39:49;11.30;;;4.40;;
18378;SDS011;27025;51.986;5.984;2023-10-19T13:42:15;11.63;;;4.30;;
18378;SDS011;27025;51.986;5.984;2023-10-19T13:44:42;13.50;;;4.50;;
18378;SDS011;27025;51.986;5.984;2023-10-19T13:47:08;13.87;;;4.50;;
18378;SDS011;27025;51.986;5.984;2023-10-19T13:49:36;12.00;;;4.73;;
18378;SDS011;27025;51.986;5.984;2023-10-19T13:52:02;14.60;;;5.13;;
18378;SDS011;27025;51.986;5.984;2023-10-19T13:54:29;14.73;;;5.10;;
18378;SDS011;27025;51.986;5.984;2023-10-19T13:56:56;12.70;;;4.60;;
18378;SDS011;27025;51.986;5.984;2023-10-19T13:59:22;11.10;;;4.50;;
18378;SDS011;27025;51.986;5.984;2023-10-19T14:01:48;10.97;;;3.77;;
18378;SDS011;27025;51.986;5.984;2023-10-19T14:04:15;14.57;;;3.77;;
18378;SDS011;27025;51.986;5.984;2023-10-19T14:06:41;10.03;;;3.73;;
18378;SDS011;27025;51.986;5.984;2023-10-19T14:09:08;11.87;;;3.87;;
18378;SDS011;27025;51.986;5.984;2023-10-19T14:11:37;10.80;;;3.70;;
18378;SDS011;27025;51.986;5.984;2023-10-19T14:14:04;8.50;;;3.77;;
18378;SDS011;27025;51.986;5.984;2023-10-19T14:16:30;11.37;;;3.90;;
18378;SDS011;27025;51.986;5.984;2023-10-19T14:18:56;9.63;;;3.93;;
18378;SDS011;27025;51.986;5.984;2023-10-19T14:21:22;12.57;;;4.10;;
18378;SDS011;27025;51.986;5.984;2023-10-19T14:23:51;10.57;;;3.70;;
18378;SDS011;27025;51.986;5.984;2023-10-19T14:26:19;11.77;;;3.53;;
18378;SDS011;27025;51.986;5.984;2023-10-19T14:28:45;14.10;;;3.87;;
18378;SDS011;27025;51.986;5.984;2023-10-19T14:31:11;13.23;;;4.10;;
18378;SDS011;27025;51.986;5.984;2023-10-19T14:33:37;14.20;;;4.53;;
18378;SDS011;27025;51.986;5.984;2023-10-19T14:36:04;12.07;;;3.93;;
18378;SDS011;27025;51.986;5.984;2023-10-19T14:38:30;12.23;;;4.30;;
18378;SDS011;27025;51.986;5.984;2023-10-19T14:40:56;12.37;;;4.43;;
18378;SDS011;27025;51.986;5.984;2023-10-19T14:43:23;12.17;;;4.23;;
18378;SDS011;27025;51.986;5.984;2023-10-19T14:45:54;10.00;;;3.90;;
18378;SDS011;27025;51.986;5.984;2023-10-19T14:48:22;13.77;;;4.03;;
18378;SDS011;27025;51.986;5.984;2023-10-19T14:50:49;10.77;;;3.90;;
18378;SDS011;27025;51.986;5.984;2023-10-19T14:53:16;13.20;;;3.80;;
18378;SDS011;27025;51.986;5.984;2023-10-19T14:55:46;15.20;;;3.87;;
18378;SDS011;27025;51.986;5.984;2023-10-19T14:58:12;10.73;;;4.00;;
18378;SDS011;27025;51.986;5.984;2023-10-19T15:00:38;12.63;;;3.90;;
18378;SDS011;27025;51.986;5.984;2023-10-19T15:03:07;11.80;;;4.80;;